78TX weather

Baylor University Medical Center Grapevine Heliport
Grapevine, Texas, United States

Public forecast

Using degrees Fahrenheit for public forecast. Weather courtesy of forecast.io.

Closest aviation weather report (METAR) to Baylor University Medical Center Grapevine Heliport

Closest report is Dallas Fort Worth International Airport, 3.6 nm (6.6 km) SE. Retrieved 2020/04/09 13:53 UTC (40 minutes ago):

KDFW 091353Z 01009KT 10SM FEW210 BKN300 21/12 A2989 RMK AO2 SLP113 T02110117

Closest aviation forecast (TAF) to Baylor University Medical Center Grapevine Heliport

Closest forecast is Dallas Fort Worth International Airport, 3.6 nm (6.6 km) SE. Retrieved 2020/04/09 12:27 UTC (2 hours ago):

TAF KDFW 091125Z 0912/1018 04012KT P6SM BKN300 FM092300 02007KT P6SM OVC050